sensor_id;sensor_type;location;lat;lon;timestamp;temperature;humidity
12568;DHT22;6349;50.904;6.136;2023-02-01T00:01:31;5.90;99.90
12568;DHT22;6349;50.904;6.136;2023-02-01T00:03:31;5.90;99.90
12568;DHT22;6349;50.904;6.136;2023-02-01T00:05:33;5.90;99.90
12568;DHT22;6349;50.904;6.136;2023-02-01T00:07:36;5.90;99.90
12568;DHT22;6349;50.904;6.136;2023-02-01T00:09:37;5.90;99.90
12568;DHT22;6349;50.904;6.136;2023-02-01T00:11:38;5.90;99.90
12568;DHT22;6349;50.904;6.136;2023-02-01T00:13:41;5.90;99.90
12568;DHT22;6349;50.904;6.136;2023-02-01T00:15:43;5.90;99.90
12568;DHT22;6349;50.904;6.136;2023-02-01T00:17:43;5.80;99.90
12568;DHT22;6349;50.904;6.136;2023-02-01T00:19:45;5.80;99.90
12568;DHT22;6349;50.904;6.136;2023-02-01T00:21:47;5.80;99.90
12568;DHT22;6349;50.904;6.136;2023-02-01T00:23:48;5.80;99.90
12568;DHT22;6349;50.904;6.136;2023-02-01T00:25:50;5.80;99.90
12568;DHT22;6349;50.904;6.136;2023-02-01T00:27:52;5.80;99.90
12568;DHT22;6349;50.904;6.136;2023-02-01T00:29:55;5.80;99.90
12568;DHT22;6349;50.904;6.136;2023-02-01T00:31:57;5.80;99.90
12568;DHT22;6349;50.904;6.136;2023-02-01T00:33:58;5.80;99.90
12568;DHT22;6349;50.904;6.136;2023-02-01T00:36:02;5.80;99.90
12568;DHT22;6349;50.904;6.136;2023-02-01T00:38:04;5.70;99.90
12568;DHT22;6349;50.904;6.136;2023-02-01T00:40:07;5.70;99.90
12568;DHT22;6349;50.904;6.136;2023-02-01T00:42:08;5.80;99.90
12568;DHT22;6349;50.904;6.136;2023-02-01T00:44:11;5.80;99.90
12568;DHT22;6349;50.904;6.136;2023-02-01T00:46:15;5.80;99.90
12568;DHT22;6349;50.904;6.136;2023-02-01T00:48:16;5.80;99.90
12568;DHT22;6349;50.904;6.136;2023-02-01T00:50:18;5.80;99.90
12568;DHT22;6349;50.904;6.136;2023-02-01T00:52:20;5.70;99.90
12568;DHT22;6349;50.904;6.136;2023-02-01T00:54:22;5.80;99.90
12568;DHT22;6349;50.904;6.136;2023-02-01T00:56:24;5.80;99.90
12568;DHT22;6349;50.904;6.136;2023-02-01T00:58:26;5.80;99.90
12568;DHT22;6349;50.904;6.136;2023-02-01T01:00:27;5.80;99.90
12568;DHT22;6349;50.904;6.136;2023-02-01T01:02:29;5.80;99.90
12568;DHT22;6349;50.904;6.136;2023-02-01T01:04:31;5.70;99.90
12568;DHT22;6349;50.904;6.136;2023-02-01T01:06:34;5.80;99.90
12568;DHT22;6349;50.904;6.136;2023-02-01T01:08:37;5.70;99.90
12568;DHT22;6349;50.904;6.136;2023-02-01T01:10:39;5.70;99.90
12568;DHT22;6349;50.904;6.136;2023-02-01T01:12:40;5.70;99.90
12568;DHT22;6349;50.904;6.136;2023-02-01T01:14:44;5.70;99.90
12568;DHT22;6349;50.904;6.136;2023-02-01T01:16:45;5.70;99.90
12568;DHT22;6349;50.904;6.136;2023-02-01T01:18:49;5.60;99.90
12568;DHT22;6349;50.904;6.136;2023-02-01T01:20:51;5.70;99.90
12568;DHT22;6349;50.904;6.136;2023-02-01T01:22:55;5.70;99.90
12568;DHT22;6349;50.904;6.136;2023-02-01T01:24:56;5.70;99.90
12568;DHT22;6349;50.904;6.136;2023-02-01T01:26:58;5.70;99.90
12568;DHT22;6349;50.904;6.136;2023-02-01T01:28:59;5.70;99.90
12568;DHT22;6349;50.904;6.136;2023-02-01T01:31:07;5.70;99.90
12568;DHT22;6349;50.904;6.136;2023-02-01T01:33:09;5.70;99.90
12568;DHT22;6349;50.904;6.136;2023-02-01T01:35:11;5.70;99.90
12568;DHT22;6349;50.904;6.136;2023-02-01T01:37:12;5.80;99.90
12568;DHT22;6349;50.904;6.136;2023-02-01T01:39:14;5.80;99.90
12568;DHT22;6349;50.904;6.136;2023-02-01T01:41:20;5.70;99.90
12568;DHT22;6349;50.904;6.136;2023-02-01T01:43:54;5.70;99.90
12568;DHT22;6349;50.904;6.136;2023-02-01T01:45:55;5.70;99.90
12568;DHT22;6349;50.904;6.136;2023-02-01T01:48:11;5.70;99.90
12568;DHT22;6349;50.904;6.136;2023-02-01T01:50:20;5.70;99.90
12568;DHT22;6349;50.904;6.136;2023-02-01T01:52:25;5.80;99.90
12568;DHT22;6349;50.904;6.136;2023-02-01T01:54:32;5.70;99.90
12568;DHT22;6349;50.904;6.136;2023-02-01T01:56:35;5.80;99.90
12568;DHT22;6349;50.904;6.136;2023-02-01T01:58:37;5.80;99.90
12568;DHT22;6349;50.904;6.136;2023-02-01T02:00:39;5.80;99.90
12568;DHT22;6349;50.904;6.136;2023-02-01T02:02:44;5.80;99.90
12568;DHT22;6349;50.904;6.136;2023-02-01T02:04:48;5.80;99.90
12568;DHT22;6349;50.904;6.136;2023-02-01T02:07:10;5.80;99.90
12568;DHT22;6349;50.904;6.136;2023-02-01T02:09:13;5.80;99.90
12568;DHT22;6349;50.904;6.136;2023-02-01T02:11:17;5.70;99.90
12568;DHT22;6349;50.904;6.136;2023-02-01T02:13:18;5.80;99.90
12568;DHT22;6349;50.904;6.136;2023-02-01T02:15:20;5.70;99.90
12568;DHT22;6349;50.904;6.136;2023-02-01T02:17:58;5.70;99.90
12568;DHT22;6349;50.904;6.136;2023-02-01T02:20:27;5.80;99.90
12568;DHT22;6349;50.904;6.136;2023-02-01T02:25:19;5.80;99.90
12568;DHT22;6349;50.904;6.136;2023-02-01T02:30:29;5.80;99.90
12568;DHT22;6349;50.904;6.136;2023-02-01T02:35:19;5.80;99.90
12568;DHT22;6349;50.904;6.136;2023-02-01T02:37:52;5.80;99.90
12568;DHT22;6349;50.904;6.136;2023-02-01T02:42:31;5.80;99.90
12568;DHT22;6349;50.904;6.136;2023-02-01T02:45:18;5.90;99.90
12568;DHT22;6349;50.904;6.136;2023-02-01T02:48:07;5.90;99.90
12568;DHT22;6349;50.904;6.136;2023-02-01T02:50:29;5.90;99.90
12568;DHT22;6349;50.904;6.136;2023-02-01T02:53:01;5.80;99.90
12568;DHT22;6349;50.904;6.136;2023-02-01T02:55:26;5.90;99.90
12568;DHT22;6349;50.904;6.136;2023-02-01T02:57:40;5.90;99.90
12568;DHT22;6349;50.904;6.136;2023-02-01T03:00:07;5.90;99.90
12568;DHT22;6349;50.904;6.136;2023-02-01T03:02:31;5.90;99.90
12568;DHT22;6349;50.904;6.136;2023-02-01T03:04:55;5.90;99.90
12568;DHT22;6349;50.904;6.136;2023-02-01T03:06:57;5.90;99.90
12568;DHT22;6349;50.904;6.136;2023-02-01T03:09:03;5.90;99.90
12568;DHT22;6349;50.904;6.136;2023-02-01T03:11:11;5.80;99.90
12568;DHT22;6349;50.904;6.136;2023-02-01T03:13:43;5.80;99.90
12568;DHT22;6349;50.904;6.136;2023-02-01T03:16:00;5.80;99.90
12568;DHT22;6349;50.904;6.136;2023-02-01T03:18:09;5.80;99.90
12568;DHT22;6349;50.904;6.136;2023-02-01T03:20:14;5.80;99.90
12568;DHT22;6349;50.904;6.136;2023-02-01T03:22:20;5.80;99.90
12568;DHT22;6349;50.904;6.136;2023-02-01T03:26:53;5.80;99.90
12568;DHT22;6349;50.904;6.136;2023-02-01T03:29:02;5.80;99.90
12568;DHT22;6349;50.904;6.136;2023-02-01T03:31:06;5.80;99.90
12568;DHT22;6349;50.904;6.136;2023-02-01T03:33:13;5.80;99.90
12568;DHT22;6349;50.904;6.136;2023-02-01T03:37:49;5.80;99.90
12568;DHT22;6349;50.904;6.136;2023-02-01T03:39:58;5.70;99.90
12568;DHT22;6349;50.904;6.136;2023-02-01T03:42:08;5.70;99.90
12568;DHT22;6349;50.904;6.136;2023-02-01T03:44:27;5.70;99.90
12568;DHT22;6349;50.904;6.136;2023-02-01T03:46:35;5.70;99.90
12568;DHT22;6349;50.904;6.136;2023-02-01T03:48:39;5.60;99.90
12568;DHT22;6349;50.904;6.136;2023-02-01T03:50:46;5.60;99.90
12568;DHT22;6349;50.904;6.136;2023-02-01T03:52:54;5.60;99.90
12568;DHT22;6349;50.904;6.136;2023-02-01T03:54:58;5.60;99.90
12568;DHT22;6349;50.904;6.136;2023-02-01T03:57:05;5.60;99.90
12568;DHT22;6349;50.904;6.136;2023-02-01T03:59:08;5.60;99.90
12568;DHT22;6349;50.904;6.136;2023-02-01T04:01:10;5.50;99.90
12568;DHT22;6349;50.904;6.136;2023-02-01T04:03:12;5.60;99.90
12568;DHT22;6349;50.904;6.136;2023-02-01T04:05:14;5.60;99.90
12568;DHT22;6349;50.904;6.136;2023-02-01T04:07:16;5.60;99.90
12568;DHT22;6349;50.904;6.136;2023-02-01T04:09:18;5.60;99.90
12568;DHT22;6349;50.904;6.136;2023-02-01T04:11:19;5.50;99.90
12568;DHT22;6349;50.904;6.136;2023-02-01T04:13:21;5.50;99.90
12568;DHT22;6349;50.904;6.136;2023-02-01T04:15:23;5.50;99.90
12568;DHT22;6349;50.904;6.136;2023-02-01T04:17:24;5.50;99.90
12568;DHT22;6349;50.904;6.136;2023-02-01T04:19:26;5.50;99.90
12568;DHT22;6349;50.904;6.136;2023-02-01T04:21:28;5.50;99.90
12568;DHT22;6349;50.904;6.136;2023-02-01T04:23:29;5.50;99.90
12568;DHT22;6349;50.904;6.136;2023-02-01T04:25:33;5.50;99.90
12568;DHT22;6349;50.904;6.136;2023-02-01T04:27:35;5.40;99.90
12568;DHT22;6349;50.904;6.136;2023-02-01T04:29:36;5.40;99.90
12568;DHT22;6349;50.904;6.136;2023-02-01T04:31:38;5.30;99.90
12568;DHT22;6349;50.904;6.136;2023-02-01T04:33:40;5.40;99.90
12568;DHT22;6349;50.904;6.136;2023-02-01T04:35:42;5.40;99.90
12568;DHT22;6349;50.904;6.136;2023-02-01T04:37:44;5.30;99.90
12568;DHT22;6349;50.904;6.136;2023-02-01T04:39:45;5.40;99.90
12568;DHT22;6349;50.904;6.136;2023-02-01T04:41:47;5.40;99.90
12568;DHT22;6349;50.904;6.136;2023-02-01T04:43:51;5.40;99.90
12568;DHT22;6349;50.904;6.136;2023-02-01T04:45:53;5.40;99.90
12568;DHT22;6349;50.904;6.136;2023-02-01T04:47:56;5.40;99.90
12568;DHT22;6349;50.904;6.136;2023-02-01T04:49:58;5.40;99.90
12568;DHT22;6349;50.904;6.136;2023-02-01T04:51:59;5.40;99.90
12568;DHT22;6349;50.904;6.136;2023-02-01T04:54:02;5.40;99.90
12568;DHT22;6349;50.904;6.136;2023-02-01T04:56:07;5.40;99.90
12568;DHT22;6349;50.904;6.136;2023-02-01T04:58:09;5.40;99.90
12568;DHT22;6349;50.904;6.136;2023-02-01T05:00:12;5.30;99.90
12568;DHT22;6349;50.904;6.136;2023-02-01T05:02:14;5.30;99.90
12568;DHT22;6349;50.904;6.136;2023-02-01T05:04:15;5.30;99.90
12568;DHT22;6349;50.904;6.136;2023-02-01T05:06:17;5.30;99.90
12568;DHT22;6349;50.904;6.136;2023-02-01T05:08:19;5.20;99.90
12568;DHT22;6349;50.904;6.136;2023-02-01T05:10:23;5.30;99.90
12568;DHT22;6349;50.904;6.136;2023-02-01T05:12:25;5.20;99.90
12568;DHT22;6349;50.904;6.136;2023-02-01T05:14:47;5.20;99.90
12568;DHT22;6349;50.904;6.136;2023-02-01T05:16:50;5.20;99.90
12568;DHT22;6349;50.904;6.136;2023-02-01T05:18:51;5.20;99.90
12568;DHT22;6349;50.904;6.136;2023-02-01T05:20:53;5.10;99.90
12568;DHT22;6349;50.904;6.136;2023-02-01T05:22:55;5.20;99.90
12568;DHT22;6349;50.904;6.136;2023-02-01T05:24:56;5.20;99.90
12568;DHT22;6349;50.904;6.136;2023-02-01T05:26:58;5.20;99.90
12568;DHT22;6349;50.904;6.136;2023-02-01T05:29:01;5.10;99.90
12568;DHT22;6349;50.904;6.136;2023-02-01T05:31:09;5.10;99.90
12568;DHT22;6349;50.904;6.136;2023-02-01T05:33:11;5.10;99.90
12568;DHT22;6349;50.904;6.136;2023-02-01T05:35:13;5.10;99.90
12568;DHT22;6349;50.904;6.136;2023-02-01T05:37:15;5.10;99.90
12568;DHT22;6349;50.904;6.136;2023-02-01T05:39:17;5.10;99.90
12568;DHT22;6349;50.904;6.136;2023-02-01T05:41:19;5.00;99.90
12568;DHT22;6349;50.904;6.136;2023-02-01T05:43:21;5.00;99.90
12568;DHT22;6349;50.904;6.136;2023-02-01T05:45:22;5.10;99.90
12568;DHT22;6349;50.904;6.136;2023-02-01T05:47:23;5.00;99.90
12568;DHT22;6349;50.904;6.136;2023-02-01T05:49:25;5.00;99.90
12568;DHT22;6349;50.904;6.136;2023-02-01T05:51:26;5.00;99.90
12568;DHT22;6349;50.904;6.136;2023-02-01T05:53:28;5.00;99.90
12568;DHT22;6349;50.904;6.136;2023-02-01T05:55:31;5.00;99.90
12568;DHT22;6349;50.904;6.136;2023-02-01T05:57:33;5.00;99.90
12568;DHT22;6349;50.904;6.136;2023-02-01T05:59:35;5.00;99.90
12568;DHT22;6349;50.904;6.136;2023-02-01T06:01:42;5.00;99.90
12568;DHT22;6349;50.904;6.136;2023-02-01T06:03:45;5.00;99.90
12568;DHT22;6349;50.904;6.136;2023-02-01T06:05:47;4.90;99.90
12568;DHT22;6349;50.904;6.136;2023-02-01T06:07:49;4.90;99.90
12568;DHT22;6349;50.904;6.136;2023-02-01T06:09:52;4.90;99.90
12568;DHT22;6349;50.904;6.136;2023-02-01T06:11:53;4.90;99.90
12568;DHT22;6349;50.904;6.136;2023-02-01T06:13:55;4.90;99.90
12568;DHT22;6349;50.904;6.136;2023-02-01T06:15:57;4.90;99.90
12568;DHT22;6349;50.904;6.136;2023-02-01T06:17:58;4.80;99.90
12568;DHT22;6349;50.904;6.136;2023-02-01T06:20:00;4.80;99.90
12568;DHT22;6349;50.904;6.136;2023-02-01T06:22:02;4.80;99.90
12568;DHT22;6349;50.904;6.136;2023-02-01T06:24:08;4.80;99.90
12568;DHT22;6349;50.904;6.136;2023-02-01T06:26:10;4.80;99.90
12568;DHT22;6349;50.904;6.136;2023-02-01T06:28:13;4.80;99.90
12568;DHT22;6349;50.904;6.136;2023-02-01T06:30:14;4.80;99.90
12568;DHT22;6349;50.904;6.136;2023-02-01T06:32:16;4.80;99.90
12568;DHT22;6349;50.904;6.136;2023-02-01T06:34:18;4.80;99.90
12568;DHT22;6349;50.904;6.136;2023-02-01T06:36:20;4.80;99.90
12568;DHT22;6349;50.904;6.136;2023-02-01T06:38:22;4.70;99.90
12568;DHT22;6349;50.904;6.136;2023-02-01T06:40:24;4.80;99.90
12568;DHT22;6349;50.904;6.136;2023-02-01T06:42:26;4.80;99.90
12568;DHT22;6349;50.904;6.136;2023-02-01T06:44:28;4.70;99.90
12568;DHT22;6349;50.904;6.136;2023-02-01T06:46:30;4.70;99.90
12568;DHT22;6349;50.904;6.136;2023-02-01T06:48:32;4.70;99.90
12568;DHT22;6349;50.904;6.136;2023-02-01T06:50:33;4.70;99.90
12568;DHT22;6349;50.904;6.136;2023-02-01T06:52:36;4.70;99.90
12568;DHT22;6349;50.904;6.136;2023-02-01T06:54:41;4.60;99.90
12568;DHT22;6349;50.904;6.136;2023-02-01T06:56:43;4.60;99.90
12568;DHT22;6349;50.904;6.136;2023-02-01T06:58:44;4.60;99.90
12568;DHT22;6349;50.904;6.136;2023-02-01T07:00:45;4.60;99.90
12568;DHT22;6349;50.904;6.136;2023-02-01T07:02:45;4.60;99.90
12568;DHT22;6349;50.904;6.136;2023-02-01T07:04:46;4.70;99.90
12568;DHT22;6349;50.904;6.136;2023-02-01T07:06:47;4.60;99.90
12568;DHT22;6349;50.904;6.136;2023-02-01T07:08:48;4.60;99.90
12568;DHT22;6349;50.904;6.136;2023-02-01T07:10:48;4.60;99.90
12568;DHT22;6349;50.904;6.136;2023-02-01T07:12:49;4.60;99.90
12568;DHT22;6349;50.904;6.136;2023-02-01T07:14:50;4.60;99.90
12568;DHT22;6349;50.904;6.136;2023-02-01T07:16:50;4.60;99.90
12568;DHT22;6349;50.904;6.136;2023-02-01T07:18:52;4.60;99.90
12568;DHT22;6349;50.904;6.136;2023-02-01T07:20:53;4.60;99.90
12568;DHT22;6349;50.904;6.136;2023-02-01T07:22:56;4.50;99.90
12568;DHT22;6349;50.904;6.136;2023-02-01T07:24:57;4.60;99.90
12568;DHT22;6349;50.904;6.136;2023-02-01T07:26:57;4.50;99.90
12568;DHT22;6349;50.904;6.136;2023-02-01T07:28:58;4.50;99.90
12568;DHT22;6349;50.904;6.136;2023-02-01T07:31:04;4.60;99.90
12568;DHT22;6349;50.904;6.136;2023-02-01T07:33:06;4.60;99.90
12568;DHT22;6349;50.904;6.136;2023-02-01T07:35:07;4.60;99.90
12568;DHT22;6349;50.904;6.136;2023-02-01T07:37:08;4.60;99.90
12568;DHT22;6349;50.904;6.136;2023-02-01T07:39:08;4.60;99.90
12568;DHT22;6349;50.904;6.136;2023-02-01T07:41:09;4.60;99.90
12568;DHT22;6349;50.904;6.136;2023-02-01T07:43:10;4.60;99.90
12568;DHT22;6349;50.904;6.136;2023-02-01T07:45:11;4.70;99.90
12568;DHT22;6349;50.904;6.136;2023-02-01T07:47:13;4.70;99.90
12568;DHT22;6349;50.904;6.136;2023-02-01T07:49:14;4.70;99.90
12568;DHT22;6349;50.904;6.136;2023-02-01T07:51:16;4.70;99.90
12568;DHT22;6349;50.904;6.136;2023-02-01T07:53:17;4.70;99.90
12568;DHT22;6349;50.904;6.136;2023-02-01T07:55:17;4.70;99.90
12568;DHT22;6349;50.904;6.136;2023-02-01T07:57:19;4.70;99.90
12568;DHT22;6349;50.904;6.136;2023-02-01T07:59:19;4.70;99.90
12568;DHT22;6349;50.904;6.136;2023-02-01T08:01:22;4.80;99.90
12568;DHT22;6349;50.904;6.136;2023-02-01T08:03:24;4.80;99.90
12568;DHT22;6349;50.904;6.136;2023-02-01T08:05:25;4.80;99.90
12568;DHT22;6349;50.904;6.136;2023-02-01T08:07:26;4.70;99.90
12568;DHT22;6349;50.904;6.136;2023-02-01T08:09:27;4.70;99.90
12568;DHT22;6349;50.904;6.136;2023-02-01T08:11:28;4.70;99.90
12568;DHT22;6349;50.904;6.136;2023-02-01T08:13:28;4.70;99.90
12568;DHT22;6349;50.904;6.136;2023-02-01T08:15:29;4.70;99.90
12568;DHT22;6349;50.904;6.136;2023-02-01T08:17:30;4.70;99.90
12568;DHT22;6349;50.904;6.136;2023-02-01T08:19:31;4.80;99.90
12568;DHT22;6349;50.904;6.136;2023-02-01T08:21:31;4.80;99.90
12568;DHT22;6349;50.904;6.136;2023-02-01T08:23:40;4.80;99.90
12568;DHT22;6349;50.904;6.136;2023-02-01T08:25:41;4.80;99.90
12568;DHT22;6349;50.904;6.136;2023-02-01T08:27:42;4.70;99.90
12568;DHT22;6349;50.904;6.136;2023-02-01T08:29:42;4.80;99.90
12568;DHT22;6349;50.904;6.136;2023-02-01T08:31:43;4.80;99.90
12568;DHT22;6349;50.904;6.136;2023-02-01T08:33:48;4.90;99.90
12568;DHT22;6349;50.904;6.136;2023-02-01T08:35:50;4.90;99.90
12568;DHT22;6349;50.904;6.136;2023-02-01T08:37:50;4.90;99.90
12568;DHT22;6349;50.904;6.136;2023-02-01T08:39:51;4.90;99.90
12568;DHT22;6349;50.904;6.136;2023-02-01T08:41:52;4.90;99.90
12568;DHT22;6349;50.904;6.136;2023-02-01T08:44:13;5.00;99.90
12568;DHT22;6349;50.904;6.136;2023-02-01T08:46:14;5.00;99.90
12568;DHT22;6349;50.904;6.136;2023-02-01T08:48:15;5.00;99.90
12568;DHT22;6349;50.904;6.136;2023-02-01T08:50:16;5.00;99.90
12568;DHT22;6349;50.904;6.136;2023-02-01T08:52:16;5.00;99.90
12568;DHT22;6349;50.904;6.136;2023-02-01T08:54:17;5.00;99.90
12568;DHT22;6349;50.904;6.136;2023-02-01T08:56:20;5.00;99.90
12568;DHT22;6349;50.904;6.136;2023-02-01T08:58:21;5.00;99.90
12568;DHT22;6349;50.904;6.136;2023-02-01T09:00:22;5.10;99.90
12568;DHT22;6349;50.904;6.136;2023-02-01T09:02:22;5.00;99.90
12568;DHT22;6349;50.904;6.136;2023-02-01T09:04:23;5.00;99.90
12568;DHT22;6349;50.904;6.136;2023-02-01T09:06:24;5.00;99.90
12568;DHT22;6349;50.904;6.136;2023-02-01T09:08:24;5.10;99.90
12568;DHT22;6349;50.904;6.136;2023-02-01T09:10:25;5.10;99.90
12568;DHT22;6349;50.904;6.136;2023-02-01T09:12:29;5.10;99.90
12568;DHT22;6349;50.904;6.136;2023-02-01T09:14:30;5.20;99.90
12568;DHT22;6349;50.904;6.136;2023-02-01T09:16:31;5.20;99.90
12568;DHT22;6349;50.904;6.136;2023-02-01T09:18:31;5.20;99.90
12568;DHT22;6349;50.904;6.136;2023-02-01T09:20:32;5.20;99.90
12568;DHT22;6349;50.904;6.136;2023-02-01T09:22:33;5.20;99.90
12568;DHT22;6349;50.904;6.136;2023-02-01T09:24:33;5.20;99.90
12568;DHT22;6349;50.904;6.136;2023-02-01T09:26:34;5.30;99.90
12568;DHT22;6349;50.904;6.136;2023-02-01T09:28:34;5.30;99.90
12568;DHT22;6349;50.904;6.136;2023-02-01T09:30:36;5.40;99.90
12568;DHT22;6349;50.904;6.136;2023-02-01T09:32:37;5.40;99.90
12568;DHT22;6349;50.904;6.136;2023-02-01T09:34:38;5.40;99.90
12568;DHT22;6349;50.904;6.136;2023-02-01T09:36:38;5.40;99.90
12568;DHT22;6349;50.904;6.136;2023-02-01T09:38:39;5.50;99.90
12568;DHT22;6349;50.904;6.136;2023-02-01T09:40:43;5.50;99.90
12568;DHT22;6349;50.904;6.136;2023-02-01T09:43:08;5.50;99.90
12568;DHT22;6349;50.904;6.136;2023-02-01T09:45:22;5.50;99.90
12568;DHT22;6349;50.904;6.136;2023-02-01T09:47:25;5.50;99.90
12568;DHT22;6349;50.904;6.136;2023-02-01T09:49:31;5.50;99.90
12568;DHT22;6349;50.904;6.136;2023-02-01T09:51:37;5.50;99.90
12568;DHT22;6349;50.904;6.136;2023-02-01T09:53:41;5.60;99.90
12568;DHT22;6349;50.904;6.136;2023-02-01T09:55:48;5.60;99.90
12568;DHT22;6349;50.904;6.136;2023-02-01T09:57:58;5.60;99.90
12568;DHT22;6349;50.904;6.136;2023-02-01T10:00:09;5.60;99.90
12568;DHT22;6349;50.904;6.136;2023-02-01T10:02:24;5.60;99.90
12568;DHT22;6349;50.904;6.136;2023-02-01T10:04:27;5.60;99.90
12568;DHT22;6349;50.904;6.136;2023-02-01T10:07:06;5.60;99.90
12568;DHT22;6349;50.904;6.136;2023-02-01T10:14:32;5.70;99.90
12568;DHT22;6349;50.904;6.136;2023-02-01T10:16:52;5.80;99.90
12568;DHT22;6349;50.904;6.136;2023-02-01T10:21:28;5.80;99.90
12568;DHT22;6349;50.904;6.136;2023-02-01T10:23:54;5.90;99.90
12568;DHT22;6349;50.904;6.136;2023-02-01T10:28:34;6.00;99.90
12568;DHT22;6349;50.904;6.136;2023-02-01T10:30:45;6.00;99.90
12568;DHT22;6349;50.904;6.136;2023-02-01T10:32:50;6.00;99.90
12568;DHT22;6349;50.904;6.136;2023-02-01T10:35:08;6.10;99.90
12568;DHT22;6349;50.904;6.136;2023-02-01T10:37:34;6.10;99.90
12568;DHT22;6349;50.904;6.136;2023-02-01T10:39:36;6.10;99.90
12568;DHT22;6349;50.904;6.136;2023-02-01T10:41:40;6.10;99.90
12568;DHT22;6349;50.904;6.136;2023-02-01T10:43:43;6.20;99.90
12568;DHT22;6349;50.904;6.136;2023-02-01T10:45:45;6.20;99.90
12568;DHT22;6349;50.904;6.136;2023-02-01T10:47:50;6.20;99.90
12568;DHT22;6349;50.904;6.136;2023-02-01T10:52:37;6.20;99.90
12568;DHT22;6349;50.904;6.136;2023-02-01T10:54:41;6.20;99.90
12568;DHT22;6349;50.904;6.136;2023-02-01T10:56:43;6.20;99.90
12568;DHT22;6349;50.904;6.136;2023-02-01T10:58:47;6.30;99.90
12568;DHT22;6349;50.904;6.136;2023-02-01T11:00:54;6.30;99.90
12568;DHT22;6349;50.904;6.136;2023-02-01T11:02:56;6.30;99.90
12568;DHT22;6349;50.904;6.136;2023-02-01T11:05:01;6.30;99.90
12568;DHT22;6349;50.904;6.136;2023-02-01T11:07:12;6.40;99.90
12568;DHT22;6349;50.904;6.136;2023-02-01T11:09:28;6.40;99.90
12568;DHT22;6349;50.904;6.136;2023-02-01T11:11:29;6.50;99.90
12568;DHT22;6349;50.904;6.136;2023-02-01T11:13:31;6.50;99.90
12568;DHT22;6349;50.904;6.136;2023-02-01T11:15:33;6.50;99.90
12568;DHT22;6349;50.904;6.136;2023-02-01T11:17:38;6.60;99.90
12568;DHT22;6349;50.904;6.136;2023-02-01T11:19:44;6.60;99.90
12568;DHT22;6349;50.904;6.136;2023-02-01T11:21:50;6.70;99.90
12568;DHT22;6349;50.904;6.136;2023-02-01T11:23:51;6.80;99.90
12568;DHT22;6349;50.904;6.136;2023-02-01T11:25:55;6.80;99.90
12568;DHT22;6349;50.904;6.136;2023-02-01T11:27:56;6.80;99.90
12568;DHT22;6349;50.904;6.136;2023-02-01T11:30:00;6.80;99.90
12568;DHT22;6349;50.904;6.136;2023-02-01T11:32:02;6.80;99.90
12568;DHT22;6349;50.904;6.136;2023-02-01T11:34:13;6.90;99.90
12568;DHT22;6349;50.904;6.136;2023-02-01T11:36:18;7.00;99.90
12568;DHT22;6349;50.904;6.136;2023-02-01T11:38:30;7.00;99.90
12568;DHT22;6349;50.904;6.136;2023-02-01T11:40:36;7.10;99.90
12568;DHT22;6349;50.904;6.136;2023-02-01T11:42:56;7.10;99.90
12568;DHT22;6349;50.904;6.136;2023-02-01T11:45:20;7.10;99.90
12568;DHT22;6349;50.904;6.136;2023-02-01T11:47:31;7.10;99.90
12568;DHT22;6349;50.904;6.136;2023-02-01T11:49:38;7.10;99.90
12568;DHT22;6349;50.904;6.136;2023-02-01T11:54:11;7.10;99.90
12568;DHT22;6349;50.904;6.136;2023-02-01T11:56:32;7.20;99.90
12568;DHT22;6349;50.904;6.136;2023-02-01T11:58:58;7.20;99.90
12568;DHT22;6349;50.904;6.136;2023-02-01T12:04:12;7.10;99.90
12568;DHT22;6349;50.904;6.136;2023-02-01T12:09:23;7.00;99.90
12568;DHT22;6349;50.904;6.136;2023-02-01T12:16:31;7.00;99.90
12568;DHT22;6349;50.904;6.136;2023-02-01T12:18:50;7.00;99.90
12568;DHT22;6349;50.904;6.136;2023-02-01T12:21:04;7.00;99.90
12568;DHT22;6349;50.904;6.136;2023-02-01T12:26:05;7.00;99.90
12568;DHT22;6349;50.904;6.136;2023-02-01T12:31:10;7.10;99.90
12568;DHT22;6349;50.904;6.136;2023-02-01T12:33:32;7.20;99.90
12568;DHT22;6349;50.904;6.136;2023-02-01T12:36:20;7.20;99.90
12568;DHT22;6349;50.904;6.136;2023-02-01T12:45:52;7.10;99.90
12568;DHT22;6349;50.904;6.136;2023-02-01T12:48:11;7.10;99.90
12568;DHT22;6349;50.904;6.136;2023-02-01T12:50:26;7.10;99.90
12568;DHT22;6349;50.904;6.136;2023-02-01T12:52:49;7.10;99.90
12568;DHT22;6349;50.904;6.136;2023-02-01T12:55:07;7.10;99.90
12568;DHT22;6349;50.904;6.136;2023-02-01T12:57:22;7.10;99.90
12568;DHT22;6349;50.904;6.136;2023-02-01T12:59:31;7.10;99.90
12568;DHT22;6349;50.904;6.136;2023-02-01T13:01:46;7.10;99.90
12568;DHT22;6349;50.904;6.136;2023-02-01T13:04:23;7.10;99.90
12568;DHT22;6349;50.904;6.136;2023-02-01T13:06:45;7.10;99.90
12568;DHT22;6349;50.904;6.136;2023-02-01T13:09:22;7.10;99.90
12568;DHT22;6349;50.904;6.136;2023-02-01T13:11:31;7.10;99.90
12568;DHT22;6349;50.904;6.136;2023-02-01T13:13:44;7.20;99.90
12568;DHT22;6349;50.904;6.136;2023-02-01T13:18:18;7.20;99.90
12568;DHT22;6349;50.904;6.136;2023-02-01T13:20:30;7.20;99.90
12568;DHT22;6349;50.904;6.136;2023-02-01T13:22:38;7.20;99.90
12568;DHT22;6349;50.904;6.136;2023-02-01T13:24:56;7.20;99.90
12568;DHT22;6349;50.904;6.136;2023-02-01T13:27:00;7.20;99.90
12568;DHT22;6349;50.904;6.136;2023-02-01T13:29:05;7.30;99.90
12568;DHT22;6349;50.904;6.136;2023-02-01T13:32:03;7.20;99.90
12568;DHT22;6349;50.904;6.136;2023-02-01T13:34:15;7.10;99.90
12568;DHT22;6349;50.904;6.136;2023-02-01T13:41:24;7.20;99.90
12568;DHT22;6349;50.904;6.136;2023-02-01T13:43:30;7.30;99.90
12568;DHT22;6349;50.904;6.136;2023-02-01T13:45:35;7.30;99.90
12568;DHT22;6349;50.904;6.136;2023-02-01T13:47:45;7.30;99.90
12568;DHT22;6349;50.904;6.136;2023-02-01T13:49:47;7.20;99.90
12568;DHT22;6349;50.904;6.136;2023-02-01T13:51:52;7.30;99.90
12568;DHT22;6349;50.904;6.136;2023-02-01T13:53:54;7.30;99.90
12568;DHT22;6349;50.904;6.136;2023-02-01T13:56:00;7.30;99.90
12568;DHT22;6349;50.904;6.136;2023-02-01T13:58:21;7.30;99.90
12568;DHT22;6349;50.904;6.136;2023-02-01T14:00:30;7.30;99.90
12568;DHT22;6349;50.904;6.136;2023-02-01T14:05:07;7.30;99.90
12568;DHT22;6349;50.904;6.136;2023-02-01T14:07:18;7.30;99.90
12568;DHT22;6349;50.904;6.136;2023-02-01T14:09:33;7.30;99.90
12568;DHT22;6349;50.904;6.136;2023-02-01T14:11:53;7.30;99.90
12568;DHT22;6349;50.904;6.136;2023-02-01T14:13:54;7.30;99.90
12568;DHT22;6349;50.904;6.136;2023-02-01T14:20:44;7.30;99.90
12568;DHT22;6349;50.904;6.136;2023-02-01T14:22:47;7.40;99.90
12568;DHT22;6349;50.904;6.136;2023-02-01T14:24:53;7.40;99.90
12568;DHT22;6349;50.904;6.136;2023-02-01T14:26:57;7.40;99.90
12568;DHT22;6349;50.904;6.136;2023-02-01T14:32:02;7.40;99.90
12568;DHT22;6349;50.904;6.136;2023-02-01T14:33:56;7.40;99.90
12568;DHT22;6349;50.904;6.136;2023-02-01T14:36:07;7.40;99.90
12568;DHT22;6349;50.904;6.136;2023-02-01T14:38:10;7.50;99.90
12568;DHT22;6349;50.904;6.136;2023-02-01T14:44:40;7.50;99.90
12568;DHT22;6349;50.904;6.136;2023-02-01T14:47:06;7.60;99.90
12568;DHT22;6349;50.904;6.136;2023-02-01T14:49:09;7.50;99.90
12568;DHT22;6349;50.904;6.136;2023-02-01T14:51:14;7.60;99.90
12568;DHT22;6349;50.904;6.136;2023-02-01T14:53:21;7.60;99.90
12568;DHT22;6349;50.904;6.136;2023-02-01T14:55:36;7.60;99.90
12568;DHT22;6349;50.904;6.136;2023-02-01T14:57:40;7.60;99.90
12568;DHT22;6349;50.904;6.136;2023-02-01T14:59:43;7.60;99.90
12568;DHT22;6349;50.904;6.136;2023-02-01T15:01:50;7.60;99.90